Terminal Aerodrome Forecast
Issued by NWS

Home | Current Version | Previous Version | Text Only | Print | Product List | Glossary On
Versions: 1 2 3 4 5 6 7 8 9 10 11 12 13 14 15 16 17 18 19 20 21 22 23 24 25 26 27 28 29 30 31 32 33 34
000
FTUS45 KLKN 251120
TAFEKO
TAF
KEKO 251120Z 2512/2612 VRB05KT P6SM VCSH SCT030 OVC050
     FM251500 22010KT 4SM -RA OVC023
     FM251800 31012G22KT 6SM -SHRA OVC030
     FM260300 VRB05KT P6SM OVC050=

USA.gov is the U.S. government's official web portal to all federal, state and local government web resources and services.